Terminal Aerodrome Forecast
Issued by NWS

Home | Current Version | Previous Version | Text Only | Print | Product List | Glossary On
Versions: 1 2 3 4 5 6 7 8 9 10 11 12 13 14 15
553
FTUS46 KHNX 200536
TAFFAT
TAF
KFAT 200536Z 2006/2106 VRB02KT 5SM BR BKN150
     FM201900 VRB04KT 6SM HZ BKN060=

USA.gov is the U.S. government's official web portal to all federal, state and local government web resources and services.